Saint Truiden, Belgium

10:27 PM CET on February 08, 2016 (GMT +0100)
Liege | | Change Station
CLOSE
Current Station
Airport
Location: Bierset,
Elevation: 614 ft
Nearby Weather Stations

Elev 614 ft 50.65 °N, 5.45 °E | Updated 7 minutes ago

Mostly Cloudy
Mostly Cloudy
45 °F
Feels Like 34 °F
N
32
Wind Variable Wind from SW
Gusts 44 mph

Today
High -- | Low -- °F
--% Chance of Precip.
Yesterday
High -- | Low -- °F
Precip. -- in
Pressure 29.47 in
Visibility 6.2 miles
Clouds Scattered Clouds 3200 ft
Mostly Cloudy 4300 ft
Windchill 34 °F
Dew Point 34 °F
Humidity 66%
Rainfall 0.00 in
Snow Depth Not available.
8:05 AM 5:42 PM
New Moon, 0% visible
METAR EBLG 082120Z 23028G38KT 9999 SCT032 BKN043 07/01 Q0998 TEMPO 22030G40KT 5000 SHRA BKN020TCU
Pressure 29.47 in
Visibility 6.2 miles
Clouds Scattered Clouds 3200 ft
Mostly Cloudy 4300 ft
Windchill 34 °F
Dew Point 34 °F
Humidity 66%
Rainfall 0.00 in
Snow Depth Not available.
8:05 AM 5:42 PM
New Moon, 0% visible
METAR EBLG 082120Z 23028G38KT 9999 SCT032 BKN043 07/01 Q0998 TEMPO 22030G40KT 5000 SHRA BKN020TCU

10-Day Weather Forecast

Almanac

Astronomy

Feb. 08, 2016 Rise Set
Actual Time
Civil Twilight
Nautical Twilight
Astronomical Twilight
Moon
Length of Visible Light
Length of Day
Tomorrow will be .
, % of the Moon is Illuminated

Today's Extremes

Country Highs Country Lows

Community

WunderPhotos

Upload Photos

1,891,516 photos uploaded!

WunderBlog® & News

Nearby

Air Quality

  Air Quality AQ Index Pollutant
Not available.

Snow Depth

Station Depth Elevation

Earthquake Activity

City Distance Mag. Time & Date
Minimum magnitude displayed is 2.5.

Coastal Water Temperatures

Place Temperature

Stations

Nearby Weather Stations

Station Location Temp. Windchill Dew Point Humidity Wind Precip. Elev Updated Type